Currently 57°F in Perris, California, USA
57°F
70°F / 37°F
2 mph NE
0.00"
Wednesday, January 23, 2019 6:55 PM PST

Perris, California Weather Summary
Last 36 Hours

Temperature Winds Hourly Humidity Dewpoint
Time Report Norm Report Norm Max Gusts Precip. Rpt. Norm Rpt. Norm Pressure
1Wed 06:55 PM  56.8°F  57°F  2 mph NE  3 mph  5 mph  0.00"  45%  53%  35°F  39°F  30.16"
Wed 06:00 PM  59.4°F  58°F  2 mph NE  3 mph  6 mph  0.00"  36%  50%  31°F  39°F  30.13"
Wed 05:02 PM  62.2°F  61°F  4 mph W  4 mph  9 mph  0.00"  32%  45%  31°F  39°F  30.14"
Wed 04:00 PM  64.9°F  63°F  4 mph SW  4 mph  8 mph  0.00"  28%  42%  29°F  39°F  30.15"
Wed 03:00 PM  68.0°F  64°F  2 mph SW  5 mph  8 mph  0.00"  25%  40%  29°F  38°F  30.17"
2Wed 02:03 PM  70.0°F  65°F  calm  4 mph  5 mph  ----  23%  39%  29°F  38°F  30.18"
Wed 02:00 PM  69.7°F  65°F  calm  4 mph  6 mph  0.00"  23%  39%  29°F  38°F  30.18"
Wed 01:00 PM  66.0°F  64°F  3 mph SW  4 mph  7 mph  0.00"  26%  40%  29°F  39°F  30.22"
Wed 12:00 PM  62.8°F  63°F  5 mph NW  3 mph  4 mph  0.00"  28%  43%  28°F  39°F  30.27"
Wed 11:00 AM  61.3°F  60°F  calm  3 mph  6 mph  0.00"  41%  50%  36°F  41°F  30.31"
Wed 10:00 AM  53.8°F  57°F  calm  3 mph  6 mph  0.00"  50%  58%  35°F  42°F  30.34"
Wed 09:00 AM  46.3°F  51°F  3 mph NE  2 mph  8 mph  0.00"  63%  68%  34°F  41°F  30.36"
Wed 08:00 AM  39.6°F  47°F  calm  2 mph  5 mph  0.00"  68%  73%  29°F  39°F  30.37"
Wed 07:00 AM  48.4°F  46°F  3 mph SW  2 mph  12 mph  0.00"  44%  74%  27°F  37°F  30.36"
Wed 06:00 AM  40.5°F  46°F  calm  2 mph  6 mph  0.00"  64%  73%  29°F  38°F  30.36"
Wed 05:00 AM  38.0°F  47°F  6 mph SE  2 mph  9 mph  0.00"  63%  72%  26°F  38°F  30.33"
Wed 04:00 AM  38.5°F  47°F  2 mph N  2 mph  7 mph  0.00"  63%  71%  26°F  38°F  30.32"
3Wed 03:43 AM  36.7°F  47°F  5 mph SE  1 mph  7 mph  ----  74%  71%  29°F  38°F  30.33"
Wed 03:00 AM  39.4°F  48°F  calm  2 mph  5 mph  0.00"  63%  70%  27°F  38°F  30.34"
Wed 02:00 AM  40.1°F  49°F  calm  2 mph  4 mph  0.00"  56%  69%  25°F  38°F  30.34"
Wed 01:00 AM  40.4°F  50°F  calm  2 mph  5 mph  0.00"  57%  67%  26°F  39°F  30.34"
Wed 12:00 AM  42.8°F  51°F  calm  2 mph  5 mph  0.00"  54%  65%  27°F  39°F  30.33"
Tue 11:00 PM  45.2°F  52°F  calm  2 mph  4 mph  0.00"  45%  63%  24°F  39°F  30.33"
Tue 10:00 PM  48.4°F  53°F  calm  2 mph  4 mph  0.00"  36%  61%  22°F  39°F  30.31"
Tue 09:00 PM  49.9°F  54°F  3 mph SE  2 mph  7 mph  0.00"  36%  58%  23°F  39°F  30.29"
Tue 08:00 PM  51.2°F  56°F  1 mph NE  3 mph  8 mph  0.00"  32%  55%  21°F  39°F  30.28"
Tue 07:00 PM  51.8°F  57°F  calm  3 mph  10 mph  0.00"  36%  53%  24°F  39°F  30.28"
Tue 06:00 PM  55.2°F  59°F  7 mph S  3 mph  16 mph  0.00"  25%  50%  19°F  39°F  30.25"
Tue 05:00 PM  57.4°F  61°F  7 mph SE  4 mph  17 mph  0.00"  24%  45%  19°F  39°F  30.23"
Tue 04:00 PM  59.0°F  63°F  7 mph S  4 mph  20 mph  0.00"  23%  42%  20°F  39°F  30.22"
Tue 03:00 PM  59.4°F  65°F  10 mph NW  5 mph  21 mph  0.00"  21%  40%  18°F  39°F  30.21"
Tue 02:00 PM  61.8°F  65°F  3 mph NE  4 mph  24 mph  0.00"  24%  39%  23°F  39°F  30.21"
Tue 01:00 PM  61.0°F  65°F  6 mph SW  4 mph  19 mph  0.00"  24%  40%  22°F  39°F  30.22"
Tue 12:00 PM  60.3°F  63°F  12 mph W  3 mph  16 mph  0.00"  28%  43%  26°F  40°F  30.23"
Tue 11:00 AM  59.2°F  60°F  2 mph SW  3 mph  9 mph  0.00"  30%  50%  27°F  41°F  30.25"
Tue 10:00 AM  54.5°F  57°F  3 mph S  3 mph  8 mph  0.00"  42%  58%  31°F  42°F  30.25"
Tue 09:00 AM  50.0°F  52°F  4 mph E  2 mph  7 mph  0.00"  59%  68%  36°F  41°F  30.25"
Tue 08:00 AM  45.2°F  47°F  calm  2 mph  6 mph  0.00"  74%  72%  37°F  38°F  30.25"
Tue 07:00 AM  42.7°F  46°F  1 mph E  1 mph  12 mph  0.00"  75%  73%  35°F  37°F  30.22"

  1. Current weather data. No green row appears if the current weather data is also the high or low for the current day.
  2. High temperature for the current day.
  3. Low temperature for the current day.

The Perris, California weather pages are a service of WeatherCurrents. Perris is located in Southern California's Inland Empire, south of Riverside and north of Sun City, along the Interstate 215 freeway.
Copyright ©Wed Jan 23 18:56:02 PST 2019  WeatherCurrents. All rights reserved. - Submit questions and comments - Privacy Policy

This page automatically refreshes every 10 minutes.